INFORMACIÓN METAR y TAF
METAR FOR LIMC
ADDS - METARS form results

(0258 UTC 28 January 2021)
Data provider http://aviationweather.gov/metar/data/
 
METAR text: LIMC 280250Z 32005KT CAVOK 02/00 Q1014 NOSIG
Conditions at: LIMC (MILANO/MALPENSA , IT) observed 0250 UTC 28 January 2021
Temperature: 2.0°C (36°F)
Dewpoint: 0.0°C (32°F) [RH = 87%]
Pressure (altimeter): 29.94 inches Hg (1014.0 mb)
Winds: from the NW (320 degrees) at 6 MPH (5 knots; 2.6 m/s)
Visibility: 6 or more miles (10+ km)
Ceiling: ceiling and visibility are OK
Clouds: unknown
Weather: no significant weather observed at this time

METAR text: LIMC 280220Z 30004KT 270V350 CAVOK 02/M00 Q1015 NOSIG
Conditions at: LIMC (MILANO/MALPENSA , IT) observed 0220 UTC 28 January 2021
Temperature: 2.0°C (36°F)
Dewpoint: 0.0°C (32°F) [RH = 87%]
Pressure (altimeter): 29.97 inches Hg (1015.0 mb)
Winds: from the WNW (300 degrees) at 5 MPH (4 knots; 2.1 m/s)
Visibility: 6 or more miles (10+ km)
Ceiling: ceiling and visibility are OK
Clouds: unknown
Weather: no significant weather observed at this time

Forecast for: LIMC (MILANO/MALPENSA , IT)
Text: TAF LIMC 272300Z 2800/2906 36007KT 9999 FEW070
Forecast period: 0000 UTC 28 January 2021 to 0600 UTC 29 January 2021
Forecast type: FROM: standard forecast or significant change
Winds: from the N (360 degrees) at 8 MPH (7 knots; 3.6 m/s)
Visibility: 6 or more miles (10+ km)
Ceiling: at least 12,000 feet AGL
Clouds: few clouds at 7000 feet AGL
Weather: no significant weather forecast for this period

 MAPA DE AEROPUERTO

 INFORMACIÓN DE PISTA